sensor_id;sensor_type;location;lat;lon;timestamp;P1;durP1;ratioP1;P2;durP2;ratioP2
11185;SDS011;5649;52.422;13.754;2022-11-02T00:00:49;18.27;;;5.30;;
11185;SDS011;5649;52.422;13.754;2022-11-02T00:03:15;17.50;;;6.67;;
11185;SDS011;5649;52.422;13.754;2022-11-02T00:05:41;17.37;;;4.60;;
11185;SDS011;5649;52.422;13.754;2022-11-02T00:08:07;9.17;;;4.37;;
11185;SDS011;5649;52.422;13.754;2022-11-02T00:10:34;18.97;;;4.00;;
11185;SDS011;5649;52.422;13.754;2022-11-02T00:13:00;9.00;;;3.93;;
11185;SDS011;5649;52.422;13.754;2022-11-02T00:15:26;9.93;;;4.60;;
11185;SDS011;5649;52.422;13.754;2022-11-02T00:17:54;12.90;;;3.87;;
11185;SDS011;5649;52.422;13.754;2022-11-02T00:20:20;13.87;;;3.80;;
11185;SDS011;5649;52.422;13.754;2022-11-02T00:22:47;7.60;;;3.40;;
11185;SDS011;5649;52.422;13.754;2022-11-02T00:25:15;9.80;;;5.20;;
11185;SDS011;5649;52.422;13.754;2022-11-02T00:27:42;7.20;;;3.77;;
11185;SDS011;5649;52.422;13.754;2022-11-02T00:30:08;6.47;;;3.00;;
11185;SDS011;5649;52.422;13.754;2022-11-02T00:32:34;5.67;;;2.93;;
11185;SDS011;5649;52.422;13.754;2022-11-02T00:35:00;8.20;;;3.30;;
11185;SDS011;5649;52.422;13.754;2022-11-02T00:37:26;9.80;;;3.57;;
11185;SDS011;5649;52.422;13.754;2022-11-02T00:39:52;4.03;;;2.83;;
11185;SDS011;5649;52.422;13.754;2022-11-02T00:42:18;7.00;;;3.37;;
11185;SDS011;5649;52.422;13.754;2022-11-02T00:44:44;6.43;;;3.47;;
11185;SDS011;5649;52.422;13.754;2022-11-02T00:47:10;6.57;;;3.40;;
11185;SDS011;5649;52.422;13.754;2022-11-02T00:49:36;11.70;;;3.93;;
11185;SDS011;5649;52.422;13.754;2022-11-02T00:52:02;5.50;;;3.23;;
11185;SDS011;5649;52.422;13.754;2022-11-02T00:54:28;14.93;;;3.70;;
11185;SDS011;5649;52.422;13.754;2022-11-02T00:56:54;17.10;;;5.10;;
11185;SDS011;5649;52.422;13.754;2022-11-02T00:59:20;5.63;;;3.50;;
11185;SDS011;5649;52.422;13.754;2022-11-02T01:01:46;6.27;;;3.70;;
11185;SDS011;5649;52.422;13.754;2022-11-02T01:04:13;3.70;;;2.93;;
11185;SDS011;5649;52.422;13.754;2022-11-02T01:06:40;4.30;;;2.70;;
11185;SDS011;5649;52.422;13.754;2022-11-02T01:09:07;3.70;;;3.03;;
11185;SDS011;5649;52.422;13.754;2022-11-02T01:11:33;4.33;;;2.90;;
11185;SDS011;5649;52.422;13.754;2022-11-02T01:13:59;3.40;;;2.90;;
11185;SDS011;5649;52.422;13.754;2022-11-02T01:16:25;15.57;;;3.40;;
11185;SDS011;5649;52.422;13.754;2022-11-02T01:18:52;11.83;;;3.67;;
11185;SDS011;5649;52.422;13.754;2022-11-02T01:21:18;7.03;;;3.43;;
11185;SDS011;5649;52.422;13.754;2022-11-02T01:23:44;6.60;;;3.00;;
11185;SDS011;5649;52.422;13.754;2022-11-02T01:26:10;20.23;;;3.57;;
11185;SDS011;5649;52.422;13.754;2022-11-02T01:28:37;7.37;;;3.27;;
11185;SDS011;5649;52.422;13.754;2022-11-02T01:31:03;8.67;;;3.97;;
11185;SDS011;5649;52.422;13.754;2022-11-02T01:33:30;10.13;;;4.07;;
11185;SDS011;5649;52.422;13.754;2022-11-02T01:35:56;9.03;;;4.67;;
11185;SDS011;5649;52.422;13.754;2022-11-02T01:38:22;9.70;;;3.90;;
11185;SDS011;5649;52.422;13.754;2022-11-02T01:40:48;20.77;;;4.70;;
11185;SDS011;5649;52.422;13.754;2022-11-02T01:45:59;9.70;;;4.80;;
11185;SDS011;5649;52.422;13.754;2022-11-02T01:48:33;6.87;;;4.90;;
11185;SDS011;5649;52.422;13.754;2022-11-02T01:51:01;14.40;;;4.07;;
11185;SDS011;5649;52.422;13.754;2022-11-02T01:53:27;6.90;;;4.10;;
11185;SDS011;5649;52.422;13.754;2022-11-02T01:55:54;5.23;;;3.40;;
11185;SDS011;5649;52.422;13.754;2022-11-02T01:58:20;14.80;;;4.10;;
11185;SDS011;5649;52.422;13.754;2022-11-02T02:00:46;4.60;;;3.37;;
11185;SDS011;5649;52.422;13.754;2022-11-02T02:03:13;9.63;;;3.40;;
11185;SDS011;5649;52.422;13.754;2022-11-02T02:05:43;7.53;;;3.20;;
11185;SDS011;5649;52.422;13.754;2022-11-02T02:08:10;9.07;;;3.70;;
11185;SDS011;5649;52.422;13.754;2022-11-02T02:10:36;7.83;;;3.40;;
11185;SDS011;5649;52.422;13.754;2022-11-02T02:13:03;7.17;;;3.23;;
11185;SDS011;5649;52.422;13.754;2022-11-02T02:15:34;3.03;;;2.83;;
11185;SDS011;5649;52.422;13.754;2022-11-02T02:18:06;15.27;;;3.00;;
11185;SDS011;5649;52.422;13.754;2022-11-02T02:30:45;11.23;;;2.90;;
11185;SDS011;5649;52.422;13.754;2022-11-02T02:33:15;11.70;;;3.30;;
11185;SDS011;5649;52.422;13.754;2022-11-02T02:35:57;9.50;;;2.80;;
11185;SDS011;5649;52.422;13.754;2022-11-02T02:38:28;3.63;;;2.87;;
11185;SDS011;5649;52.422;13.754;2022-11-02T02:41:02;7.17;;;3.20;;
11185;SDS011;5649;52.422;13.754;2022-11-02T02:43:34;5.27;;;3.00;;
11185;SDS011;5649;52.422;13.754;2022-11-02T02:46:08;4.27;;;2.57;;
11185;SDS011;5649;52.422;13.754;2022-11-02T02:48:38;5.90;;;3.33;;
11185;SDS011;5649;52.422;13.754;2022-11-02T02:51:10;4.00;;;2.90;;
11185;SDS011;5649;52.422;13.754;2022-11-02T02:53:38;8.43;;;2.63;;
11185;SDS011;5649;52.422;13.754;2022-11-02T02:56:06;14.47;;;3.13;;
11185;SDS011;5649;52.422;13.754;2022-11-02T02:58:36;3.23;;;2.60;;
11185;SDS011;5649;52.422;13.754;2022-11-02T03:01:03;2.97;;;1.93;;
11185;SDS011;5649;52.422;13.754;2022-11-02T03:03:29;2.90;;;2.23;;
11185;SDS011;5649;52.422;13.754;2022-11-02T03:06:21;2.67;;;2.33;;
11185;SDS011;5649;52.422;13.754;2022-11-02T03:08:48;6.20;;;2.63;;
11185;SDS011;5649;52.422;13.754;2022-11-02T03:11:17;5.80;;;2.20;;
11185;SDS011;5649;52.422;13.754;2022-11-02T03:21:39;3.77;;;2.50;;
11185;SDS011;5649;52.422;13.754;2022-11-02T03:24:12;7.80;;;3.60;;
11185;SDS011;5649;52.422;13.754;2022-11-02T03:26:51;8.40;;;3.47;;
11185;SDS011;5649;52.422;13.754;2022-11-02T03:29:22;14.97;;;5.90;;
11185;SDS011;5649;52.422;13.754;2022-11-02T03:31:56;13.37;;;5.17;;
11185;SDS011;5649;52.422;13.754;2022-11-02T03:34:24;6.53;;;3.90;;
11185;SDS011;5649;52.422;13.754;2022-11-02T03:36:59;15.63;;;4.30;;
11185;SDS011;5649;52.422;13.754;2022-11-02T03:39:28;7.20;;;3.63;;
11185;SDS011;5649;52.422;13.754;2022-11-02T03:41:55;18.83;;;4.70;;
11185;SDS011;5649;52.422;13.754;2022-11-02T03:44:24;14.03;;;3.77;;
11185;SDS011;5649;52.422;13.754;2022-11-02T03:46:52;6.90;;;3.33;;
11185;SDS011;5649;52.422;13.754;2022-11-02T03:49:20;9.33;;;3.70;;
11185;SDS011;5649;52.422;13.754;2022-11-02T03:51:48;18.63;;;3.30;;
11185;SDS011;5649;52.422;13.754;2022-11-02T03:56:41;11.80;;;3.77;;
11185;SDS011;5649;52.422;13.754;2022-11-02T03:59:09;3.53;;;2.33;;
11185;SDS011;5649;52.422;13.754;2022-11-02T04:01:36;6.30;;;2.63;;
11185;SDS011;5649;52.422;13.754;2022-11-02T04:04:03;2.03;;;1.70;;
11185;SDS011;5649;52.422;13.754;2022-11-02T04:06:29;8.97;;;2.27;;
11185;SDS011;5649;52.422;13.754;2022-11-02T04:08:55;35.20;;;3.37;;
11185;SDS011;5649;52.422;13.754;2022-11-02T04:11:21;11.13;;;2.13;;
11185;SDS011;5649;52.422;13.754;2022-11-02T04:14:06;7.33;;;2.03;;
11185;SDS011;5649;52.422;13.754;2022-11-02T04:16:51;2.00;;;1.67;;
11185;SDS011;5649;52.422;13.754;2022-11-02T04:19:37;3.87;;;2.40;;
11185;SDS011;5649;52.422;13.754;2022-11-02T04:22:03;6.00;;;2.57;;
11185;SDS011;5649;52.422;13.754;2022-11-02T04:24:48;3.57;;;1.73;;
11185;SDS011;5649;52.422;13.754;2022-11-02T04:27:32;5.13;;;2.60;;
11185;SDS011;5649;52.422;13.754;2022-11-02T04:29:58;17.73;;;2.63;;
11185;SDS011;5649;52.422;13.754;2022-11-02T04:32:24;3.67;;;2.20;;
11185;SDS011;5649;52.422;13.754;2022-11-02T04:35:09;6.33;;;2.90;;
11185;SDS011;5649;52.422;13.754;2022-11-02T04:37:41;6.97;;;2.63;;
11185;SDS011;5649;52.422;13.754;2022-11-02T04:40:26;12.70;;;2.00;;
11185;SDS011;5649;52.422;13.754;2022-11-02T04:42:53;10.07;;;2.10;;
11185;SDS011;5649;52.422;13.754;2022-11-02T04:45:19;3.90;;;1.80;;
11185;SDS011;5649;52.422;13.754;2022-11-02T04:47:45;5.20;;;1.90;;
11185;SDS011;5649;52.422;13.754;2022-11-02T04:50:11;9.73;;;2.57;;
11185;SDS011;5649;52.422;13.754;2022-11-02T04:52:37;22.97;;;3.60;;
11185;SDS011;5649;52.422;13.754;2022-11-02T04:55:03;6.90;;;2.37;;
11185;SDS011;5649;52.422;13.754;2022-11-02T04:57:29;5.63;;;2.43;;
11185;SDS011;5649;52.422;13.754;2022-11-02T04:59:55;5.07;;;2.30;;
11185;SDS011;5649;52.422;13.754;2022-11-02T05:02:21;2.87;;;1.87;;
11185;SDS011;5649;52.422;13.754;2022-11-02T05:04:47;6.77;;;2.00;;
11185;SDS011;5649;52.422;13.754;2022-11-02T05:07:13;3.63;;;1.80;;
11185;SDS011;5649;52.422;13.754;2022-11-02T05:09:39;3.33;;;2.27;;
11185;SDS011;5649;52.422;13.754;2022-11-02T05:12:08;13.57;;;3.53;;
11185;SDS011;5649;52.422;13.754;2022-11-02T05:14:34;2.60;;;2.03;;
11185;SDS011;5649;52.422;13.754;2022-11-02T05:17:00;2.90;;;2.17;;
11185;SDS011;5649;52.422;13.754;2022-11-02T05:19:27;4.43;;;2.53;;
11185;SDS011;5649;52.422;13.754;2022-11-02T05:21:53;6.20;;;1.93;;
11185;SDS011;5649;52.422;13.754;2022-11-02T05:24:19;1.93;;;1.83;;
11185;SDS011;5649;52.422;13.754;2022-11-02T05:26:46;9.43;;;2.60;;
11185;SDS011;5649;52.422;13.754;2022-11-02T05:29:12;3.53;;;1.80;;
11185;SDS011;5649;52.422;13.754;2022-11-02T05:31:38;4.60;;;2.00;;
11185;SDS011;5649;52.422;13.754;2022-11-02T05:34:04;10.50;;;2.10;;
11185;SDS011;5649;52.422;13.754;2022-11-02T05:36:30;9.60;;;2.50;;
11185;SDS011;5649;52.422;13.754;2022-11-02T05:38:56;7.10;;;2.70;;
11185;SDS011;5649;52.422;13.754;2022-11-02T05:41:22;5.37;;;2.20;;
11185;SDS011;5649;52.422;13.754;2022-11-02T05:43:48;5.93;;;2.63;;
11185;SDS011;5649;52.422;13.754;2022-11-02T05:46:14;3.40;;;2.47;;
11185;SDS011;5649;52.422;13.754;2022-11-02T05:48:40;8.90;;;2.50;;
11185;SDS011;5649;52.422;13.754;2022-11-02T05:51:06;6.17;;;2.23;;
11185;SDS011;5649;52.422;13.754;2022-11-02T05:53:32;2.97;;;2.30;;
11185;SDS011;5649;52.422;13.754;2022-11-02T05:56:02;3.30;;;1.93;;
11185;SDS011;5649;52.422;13.754;2022-11-02T05:58:29;6.93;;;2.50;;
11185;SDS011;5649;52.422;13.754;2022-11-02T06:00:58;9.97;;;2.67;;
11185;SDS011;5649;52.422;13.754;2022-11-02T06:03:25;10.87;;;2.07;;
11185;SDS011;5649;52.422;13.754;2022-11-02T06:05:57;7.27;;;2.60;;
11185;SDS011;5649;52.422;13.754;2022-11-02T06:08:23;6.20;;;2.30;;
11185;SDS011;5649;52.422;13.754;2022-11-02T06:10:50;2.73;;;1.90;;
11185;SDS011;5649;52.422;13.754;2022-11-02T06:13:16;6.50;;;2.37;;
11185;SDS011;5649;52.422;13.754;2022-11-02T06:15:42;7.40;;;2.60;;
11185;SDS011;5649;52.422;13.754;2022-11-02T06:18:08;8.60;;;2.77;;
11185;SDS011;5649;52.422;13.754;2022-11-02T06:20:34;8.07;;;3.20;;
11185;SDS011;5649;52.422;13.754;2022-11-02T06:23:00;15.33;;;3.40;;
11185;SDS011;5649;52.422;13.754;2022-11-02T06:25:26;7.93;;;2.40;;
11185;SDS011;5649;52.422;13.754;2022-11-02T06:27:53;9.93;;;3.70;;
11185;SDS011;5649;52.422;13.754;2022-11-02T06:30:20;23.37;;;5.03;;
11185;SDS011;5649;52.422;13.754;2022-11-02T06:32:50;6.40;;;3.30;;
11185;SDS011;5649;52.422;13.754;2022-11-02T06:35:17;2.67;;;2.27;;
11185;SDS011;5649;52.422;13.754;2022-11-02T06:37:43;4.00;;;2.27;;
11185;SDS011;5649;52.422;13.754;2022-11-02T06:40:09;16.17;;;2.50;;
11185;SDS011;5649;52.422;13.754;2022-11-02T06:42:36;6.57;;;2.40;;
11185;SDS011;5649;52.422;13.754;2022-11-02T06:45:02;12.00;;;3.50;;
11185;SDS011;5649;52.422;13.754;2022-11-02T06:47:34;12.43;;;3.37;;
11185;SDS011;5649;52.422;13.754;2022-11-02T06:50:01;15.57;;;2.87;;
11185;SDS011;5649;52.422;13.754;2022-11-02T06:52:27;6.60;;;3.10;;
11185;SDS011;5649;52.422;13.754;2022-11-02T06:54:53;7.60;;;2.87;;
11185;SDS011;5649;52.422;13.754;2022-11-02T06:57:19;6.10;;;2.23;;
11185;SDS011;5649;52.422;13.754;2022-11-02T06:59:46;12.57;;;3.40;;
11185;SDS011;5649;52.422;13.754;2022-11-02T07:02:12;8.97;;;2.03;;
11185;SDS011;5649;52.422;13.754;2022-11-02T07:04:38;5.60;;;2.83;;
11185;SDS011;5649;52.422;13.754;2022-11-02T07:07:04;9.50;;;3.40;;
11185;SDS011;5649;52.422;13.754;2022-11-02T07:09:30;12.13;;;3.33;;
11185;SDS011;5649;52.422;13.754;2022-11-02T07:11:56;20.90;;;3.77;;
11185;SDS011;5649;52.422;13.754;2022-11-02T07:14:23;8.23;;;2.50;;
11185;SDS011;5649;52.422;13.754;2022-11-02T07:16:49;5.40;;;2.53;;
11185;SDS011;5649;52.422;13.754;2022-11-02T07:19:15;15.33;;;2.97;;
11185;SDS011;5649;52.422;13.754;2022-11-02T07:21:41;15.23;;;2.77;;
11185;SDS011;5649;52.422;13.754;2022-11-02T07:24:07;2.33;;;1.90;;
11185;SDS011;5649;52.422;13.754;2022-11-02T07:26:33;9.10;;;2.10;;
11185;SDS011;5649;52.422;13.754;2022-11-02T07:28:59;10.07;;;2.03;;
11185;SDS011;5649;52.422;13.754;2022-11-02T07:31:25;5.70;;;1.87;;
11185;SDS011;5649;52.422;13.754;2022-11-02T07:33:51;6.30;;;2.17;;
11185;SDS011;5649;52.422;13.754;2022-11-02T07:36:17;4.87;;;1.60;;
11185;SDS011;5649;52.422;13.754;2022-11-02T07:38:43;16.73;;;2.13;;
11185;SDS011;5649;52.422;13.754;2022-11-02T07:41:09;5.90;;;1.70;;
11185;SDS011;5649;52.422;13.754;2022-11-02T07:43:35;2.67;;;1.73;;
11185;SDS011;5649;52.422;13.754;2022-11-02T07:46:02;5.80;;;2.07;;
11185;SDS011;5649;52.422;13.754;2022-11-02T07:48:28;5.80;;;1.90;;
11185;SDS011;5649;52.422;13.754;2022-11-02T07:50:57;6.40;;;2.27;;
11185;SDS011;5649;52.422;13.754;2022-11-02T07:53:24;9.67;;;2.03;;
11185;SDS011;5649;52.422;13.754;2022-11-02T07:55:50;6.20;;;2.33;;
11185;SDS011;5649;52.422;13.754;2022-11-02T07:58:16;13.43;;;1.90;;
11185;SDS011;5649;52.422;13.754;2022-11-02T08:00:42;4.30;;;1.80;;
11185;SDS011;5649;52.422;13.754;2022-11-02T08:03:09;3.87;;;1.40;;
11185;SDS011;5649;52.422;13.754;2022-11-02T08:05:36;3.50;;;1.50;;
11185;SDS011;5649;52.422;13.754;2022-11-02T08:08:03;10.13;;;1.67;;
11185;SDS011;5649;52.422;13.754;2022-11-02T08:10:30;6.20;;;1.77;;
11185;SDS011;5649;52.422;13.754;2022-11-02T08:12:56;3.70;;;2.37;;
11185;SDS011;5649;52.422;13.754;2022-11-02T08:15:22;15.23;;;1.90;;
11185;SDS011;5649;52.422;13.754;2022-11-02T08:18:01;13.10;;;1.63;;
11185;SDS011;5649;52.422;13.754;2022-11-02T08:20:28;5.67;;;1.10;;
11185;SDS011;5649;52.422;13.754;2022-11-02T08:22:54;7.63;;;1.33;;
11185;SDS011;5649;52.422;13.754;2022-11-02T08:25:20;6.50;;;1.40;;
11185;SDS011;5649;52.422;13.754;2022-11-02T08:27:46;15.70;;;2.00;;
11185;SDS011;5649;52.422;13.754;2022-11-02T08:30:12;11.00;;;1.20;;
11185;SDS011;5649;52.422;13.754;2022-11-02T08:32:38;9.60;;;1.70;;
11185;SDS011;5649;52.422;13.754;2022-11-02T08:35:04;22.10;;;3.00;;
11185;SDS011;5649;52.422;13.754;2022-11-02T08:37:30;1.47;;;1.17;;
11185;SDS011;5649;52.422;13.754;2022-11-02T08:39:56;12.73;;;1.50;;
11185;SDS011;5649;52.422;13.754;2022-11-02T08:42:22;2.30;;;1.40;;
11185;SDS011;5649;52.422;13.754;2022-11-02T08:44:48;5.00;;;1.37;;
11185;SDS011;5649;52.422;13.754;2022-11-02T08:47:14;10.60;;;1.63;;
11185;SDS011;5649;52.422;13.754;2022-11-02T08:49:42;19.57;;;1.83;;
11185;SDS011;5649;52.422;13.754;2022-11-02T08:52:08;9.47;;;2.27;;
11185;SDS011;5649;52.422;13.754;2022-11-02T08:54:35;9.97;;;2.40;;
11185;SDS011;5649;52.422;13.754;2022-11-02T08:57:01;5.30;;;1.17;;
11185;SDS011;5649;52.422;13.754;2022-11-02T08:59:27;7.70;;;1.23;;
11185;SDS011;5649;52.422;13.754;2022-11-02T09:01:53;8.90;;;1.77;;
11185;SDS011;5649;52.422;13.754;2022-11-02T09:04:19;7.53;;;1.30;;
11185;SDS011;5649;52.422;13.754;2022-11-02T09:06:46;6.47;;;1.40;;
11185;SDS011;5649;52.422;13.754;2022-11-02T09:09:12;16.73;;;1.60;;
11185;SDS011;5649;52.422;13.754;2022-11-02T09:11:38;13.70;;;1.87;;
11185;SDS011;5649;52.422;13.754;2022-11-02T09:14:04;17.00;;;1.67;;
11185;SDS011;5649;52.422;13.754;2022-11-02T09:16:31;3.03;;;1.40;;
11185;SDS011;5649;52.422;13.754;2022-11-02T09:18:57;8.73;;;2.10;;
11185;SDS011;5649;52.422;13.754;2022-11-02T09:21:23;3.87;;;1.30;;
11185;SDS011;5649;52.422;13.754;2022-11-02T09:23:49;2.83;;;1.20;;
11185;SDS011;5649;52.422;13.754;2022-11-02T09:26:15;4.67;;;1.47;;
11185;SDS011;5649;52.422;13.754;2022-11-02T09:28:41;6.90;;;1.57;;
11185;SDS011;5649;52.422;13.754;2022-11-02T09:31:07;7.93;;;1.40;;
11185;SDS011;5649;52.422;13.754;2022-11-02T09:33:33;16.00;;;1.87;;
11185;SDS011;5649;52.422;13.754;2022-11-02T09:36:03;6.60;;;1.53;;
11185;SDS011;5649;52.422;13.754;2022-11-02T09:38:29;1.83;;;0.80;;
11185;SDS011;5649;52.422;13.754;2022-11-02T09:43:46;4.60;;;1.50;;
11185;SDS011;5649;52.422;13.754;2022-11-02T09:46:15;5.90;;;1.40;;
11185;SDS011;5649;52.422;13.754;2022-11-02T09:48:50;3.70;;;1.33;;
11185;SDS011;5649;52.422;13.754;2022-11-02T09:51:27;5.13;;;1.17;;
11185;SDS011;5649;52.422;13.754;2022-11-02T09:56:41;4.40;;;1.27;;
11185;SDS011;5649;52.422;13.754;2022-11-02T09:59:11;11.83;;;1.43;;
11185;SDS011;5649;52.422;13.754;2022-11-02T10:06:55;6.63;;;1.17;;
11185;SDS011;5649;52.422;13.754;2022-11-02T10:09:26;10.43;;;1.47;;
11185;SDS011;5649;52.422;13.754;2022-11-02T10:11:55;5.20;;;1.40;;
11185;SDS011;5649;52.422;13.754;2022-11-02T10:14:34;14.80;;;2.03;;
11185;SDS011;5649;52.422;13.754;2022-11-02T10:19:26;8.03;;;1.90;;
11185;SDS011;5649;52.422;13.754;2022-11-02T10:21:56;15.73;;;2.10;;
11185;SDS011;5649;52.422;13.754;2022-11-02T10:26:52;7.77;;;1.33;;
11185;SDS011;5649;52.422;13.754;2022-11-02T10:31:59;2.27;;;1.10;;
11185;SDS011;5649;52.422;13.754;2022-11-02T10:34:26;7.57;;;1.20;;
11185;SDS011;5649;52.422;13.754;2022-11-02T10:46:55;12.53;;;2.40;;
11185;SDS011;5649;52.422;13.754;2022-11-02T10:51:54;0.90;;;0.70;;
11185;SDS011;5649;52.422;13.754;2022-11-02T10:54:20;9.60;;;1.30;;
11185;SDS011;5649;52.422;13.754;2022-11-02T10:56:46;13.23;;;2.13;;
11185;SDS011;5649;52.422;13.754;2022-11-02T11:01:47;16.40;;;1.90;;
11185;SDS011;5649;52.422;13.754;2022-11-02T11:04:29;2.67;;;1.20;;
11185;SDS011;5649;52.422;13.754;2022-11-02T11:06:55;8.67;;;1.60;;
11185;SDS011;5649;52.422;13.754;2022-11-02T11:09:27;7.50;;;1.50;;
11185;SDS011;5649;52.422;13.754;2022-11-02T11:14:20;4.93;;;1.40;;
11185;SDS011;5649;52.422;13.754;2022-11-02T11:16:51;23.07;;;1.90;;
11185;SDS011;5649;52.422;13.754;2022-11-02T11:21:43;10.23;;;1.40;;
11185;SDS011;5649;52.422;13.754;2022-11-02T11:26:45;14.83;;;2.13;;
11185;SDS011;5649;52.422;13.754;2022-11-02T11:29:20;7.00;;;2.07;;
11185;SDS011;5649;52.422;13.754;2022-11-02T11:31:47;6.43;;;1.23;;
11185;SDS011;5649;52.422;13.754;2022-11-02T11:34:27;4.43;;;1.37;;
11185;SDS011;5649;52.422;13.754;2022-11-02T11:37:02;14.93;;;1.47;;
11185;SDS011;5649;52.422;13.754;2022-11-02T11:39:29;5.57;;;1.17;;
11185;SDS011;5649;52.422;13.754;2022-11-02T11:41:56;4.70;;;2.20;;
11185;SDS011;5649;52.422;13.754;2022-11-02T11:44:23;9.50;;;1.60;;
11185;SDS011;5649;52.422;13.754;2022-11-02T11:46:50;16.10;;;1.65;;
11185;SDS011;5649;52.422;13.754;2022-11-02T11:49:24;5.57;;;1.63;;
11185;SDS011;5649;52.422;13.754;2022-11-02T11:51:52;10.03;;;1.90;;
11185;SDS011;5649;52.422;13.754;2022-11-02T11:54:26;5.53;;;1.20;;
11185;SDS011;5649;52.422;13.754;2022-11-02T11:56:56;8.13;;;1.33;;
11185;SDS011;5649;52.422;13.754;2022-11-02T12:01:50;7.93;;;1.87;;
11185;SDS011;5649;52.422;13.754;2022-11-02T12:04:28;4.40;;;1.53;;
11185;SDS011;5649;52.422;13.754;2022-11-02T12:12:04;4.50;;;1.40;;
11185;SDS011;5649;52.422;13.754;2022-11-02T12:25:05;7.73;;;1.30;;
11185;SDS011;5649;52.422;13.754;2022-11-02T12:33:04;4.50;;;1.37;;
11185;SDS011;5649;52.422;13.754;2022-11-02T12:35:38;13.90;;;2.40;;
11185;SDS011;5649;52.422;13.754;2022-11-02T12:48:21;2.00;;;1.00;;
11185;SDS011;5649;52.422;13.754;2022-11-02T12:51:07;6.33;;;1.63;;
11185;SDS011;5649;52.422;13.754;2022-11-02T12:53:54;5.47;;;2.20;;
11185;SDS011;5649;52.422;13.754;2022-11-02T12:58:50;6.60;;;1.70;;
11185;SDS011;5649;52.422;13.754;2022-11-02T13:03:56;3.87;;;2.10;;
11185;SDS011;5649;52.422;13.754;2022-11-02T13:06:25;2.60;;;1.23;;
11185;SDS011;5649;52.422;13.754;2022-11-02T13:09:00;8.03;;;2.43;;
11185;SDS011;5649;52.422;13.754;2022-11-02T13:11:36;6.60;;;1.47;;
11185;SDS011;5649;52.422;13.754;2022-11-02T13:14:04;3.77;;;1.47;;
11185;SDS011;5649;52.422;13.754;2022-11-02T13:16:53;10.97;;;1.80;;
11185;SDS011;5649;52.422;13.754;2022-11-02T13:19:39;15.50;;;1.67;;
11185;SDS011;5649;52.422;13.754;2022-11-02T13:22:03;3.53;;;1.30;;
11185;SDS011;5649;52.422;13.754;2022-11-02T13:24:32;3.27;;;1.70;;
11185;SDS011;5649;52.422;13.754;2022-11-02T13:27:03;13.60;;;1.80;;
11185;SDS011;5649;52.422;13.754;2022-11-02T13:29:34;5.43;;;1.20;;
11185;SDS011;5649;52.422;13.754;2022-11-02T13:32:08;1.87;;;1.10;;
11185;SDS011;5649;52.422;13.754;2022-11-02T13:34:36;9.07;;;2.53;;
11185;SDS011;5649;52.422;13.754;2022-11-02T13:37:07;9.30;;;1.43;;
11185;SDS011;5649;52.422;13.754;2022-11-02T13:39:36;2.63;;;1.20;;
11185;SDS011;5649;52.422;13.754;2022-11-02T13:42:09;1.73;;;1.10;;
11185;SDS011;5649;52.422;13.754;2022-11-02T13:44:47;5.53;;;1.73;;
11185;SDS011;5649;52.422;13.754;2022-11-02T13:49:49;2.43;;;1.27;;
11185;SDS011;5649;52.422;13.754;2022-11-02T13:53:02;7.50;;;1.40;;
11185;SDS011;5649;52.422;13.754;2022-11-02T13:55:02;13.83;;;1.40;;
11185;SDS011;5649;52.422;13.754;2022-11-02T13:59:56;6.07;;;1.13;;
11185;SDS011;5649;52.422;13.754;2022-11-02T14:02:22;7.60;;;1.20;;
11185;SDS011;5649;52.422;13.754;2022-11-02T14:04:49;2.43;;;1.17;;
11185;SDS011;5649;52.422;13.754;2022-11-02T14:07:23;11.10;;;1.60;;
11185;SDS011;5649;52.422;13.754;2022-11-02T14:09:50;0.80;;;0.80;;
11185;SDS011;5649;52.422;13.754;2022-11-02T14:17:50;1.30;;;0.73;;
11185;SDS011;5649;52.422;13.754;2022-11-02T14:36:09;11.30;;;1.33;;
11185;SDS011;5649;52.422;13.754;2022-11-02T14:43:41;3.03;;;1.53;;
11185;SDS011;5649;52.422;13.754;2022-11-02T14:48:58;17.80;;;1.30;;
11185;SDS011;5649;52.422;13.754;2022-11-02T14:53:55;7.87;;;1.00;;
11185;SDS011;5649;52.422;13.754;2022-11-02T14:56:21;5.10;;;1.60;;
11185;SDS011;5649;52.422;13.754;2022-11-02T14:58:50;4.13;;;1.40;;
11185;SDS011;5649;52.422;13.754;2022-11-02T15:01:17;1.10;;;0.97;;
11185;SDS011;5649;52.422;13.754;2022-11-02T15:03:44;5.43;;;1.10;;
11185;SDS011;5649;52.422;13.754;2022-11-02T15:13:58;4.43;;;1.00;;
11185;SDS011;5649;52.422;13.754;2022-11-02T15:16:24;7.03;;;1.43;;
11185;SDS011;5649;52.422;13.754;2022-11-02T15:18:50;2.43;;;1.37;;
11185;SDS011;5649;52.422;13.754;2022-11-02T15:23:57;5.43;;;1.40;;
11185;SDS011;5649;52.422;13.754;2022-11-02T15:28:54;9.33;;;1.27;;
11185;SDS011;5649;52.422;13.754;2022-11-02T15:31:21;3.80;;;1.07;;
11185;SDS011;5649;52.422;13.754;2022-11-02T15:33:50;2.20;;;1.20;;
11185;SDS011;5649;52.422;13.754;2022-11-02T15:36:38;6.50;;;1.60;;
11185;SDS011;5649;52.422;13.754;2022-11-02T15:39:05;4.57;;;1.40;;
11185;SDS011;5649;52.422;13.754;2022-11-02T15:46:34;8.43;;;2.73;;
11185;SDS011;5649;52.422;13.754;2022-11-02T15:51:54;1.30;;;1.20;;
11185;SDS011;5649;52.422;13.754;2022-11-02T15:59:51;11.47;;;1.67;;
11185;SDS011;5649;52.422;13.754;2022-11-02T16:02:21;9.70;;;2.37;;
11185;SDS011;5649;52.422;13.754;2022-11-02T16:04:49;18.83;;;2.57;;
11185;SDS011;5649;52.422;13.754;2022-11-02T16:07:15;21.67;;;2.63;;
11185;SDS011;5649;52.422;13.754;2022-11-02T16:09:42;3.80;;;1.67;;
11185;SDS011;5649;52.422;13.754;2022-11-02T16:12:12;9.70;;;2.40;;
11185;SDS011;5649;52.422;13.754;2022-11-02T16:17:30;6.90;;;2.37;;
11185;SDS011;5649;52.422;13.754;2022-11-02T16:22:46;2.40;;;1.37;;
11185;SDS011;5649;52.422;13.754;2022-11-02T16:25:56;1.57;;;1.20;;
11185;SDS011;5649;52.422;13.754;2022-11-02T16:28:15;4.07;;;1.40;;
11185;SDS011;5649;52.422;13.754;2022-11-02T16:30:42;7.13;;;1.43;;
11185;SDS011;5649;52.422;13.754;2022-11-02T16:33:22;5.93;;;1.40;;
11185;SDS011;5649;52.422;13.754;2022-11-02T16:35:48;7.20;;;1.20;;
11185;SDS011;5649;52.422;13.754;2022-11-02T16:38:14;4.10;;;1.37;;
11185;SDS011;5649;52.422;13.754;2022-11-02T16:40:43;5.93;;;1.53;;
11185;SDS011;5649;52.422;13.754;2022-11-02T16:43:11;8.97;;;1.90;;
11185;SDS011;5649;52.422;13.754;2022-11-02T16:45:37;2.50;;;1.50;;
11185;SDS011;5649;52.422;13.754;2022-11-02T16:48:16;9.07;;;2.03;;
11185;SDS011;5649;52.422;13.754;2022-11-02T16:53:29;11.43;;;1.80;;
11185;SDS011;5649;52.422;13.754;2022-11-02T16:56:11;2.77;;;1.20;;
11185;SDS011;5649;52.422;13.754;2022-11-02T16:58:38;17.93;;;1.57;;
11185;SDS011;5649;52.422;13.754;2022-11-02T17:01:11;4.20;;;1.50;;
11185;SDS011;5649;52.422;13.754;2022-11-02T17:03:41;3.92;;;1.50;;
11185;SDS011;5649;52.422;13.754;2022-11-02T17:06:07;8.40;;;1.90;;
11185;SDS011;5649;52.422;13.754;2022-11-02T17:08:34;1.47;;;1.00;;
11185;SDS011;5649;52.422;13.754;2022-11-02T17:11:01;2.50;;;1.60;;
11185;SDS011;5649;52.422;13.754;2022-11-02T17:13:29;8.90;;;1.83;;
11185;SDS011;5649;52.422;13.754;2022-11-02T17:16:01;5.93;;;1.87;;
11185;SDS011;5649;52.422;13.754;2022-11-02T17:18:28;21.47;;;1.80;;
11185;SDS011;5649;52.422;13.754;2022-11-02T17:23:39;3.90;;;1.27;;
11185;SDS011;5649;52.422;13.754;2022-11-02T17:28:43;3.23;;;1.43;;
11185;SDS011;5649;52.422;13.754;2022-11-02T17:31:17;5.40;;;1.37;;
11185;SDS011;5649;52.422;13.754;2022-11-02T17:33:43;2.03;;;1.77;;
11185;SDS011;5649;52.422;13.754;2022-11-02T17:36:10;6.22;;;1.92;;
11185;SDS011;5649;52.422;13.754;2022-11-02T17:38:36;2.60;;;1.17;;
11185;SDS011;5649;52.422;13.754;2022-11-02T17:41:02;7.20;;;1.63;;
11185;SDS011;5649;52.422;13.754;2022-11-02T17:43:48;9.57;;;2.50;;
11185;SDS011;5649;52.422;13.754;2022-11-02T17:46:14;5.40;;;2.00;;
11185;SDS011;5649;52.422;13.754;2022-11-02T17:48:40;5.10;;;1.73;;
11185;SDS011;5649;52.422;13.754;2022-11-02T17:51:09;18.23;;;2.10;;
11185;SDS011;5649;52.422;13.754;2022-11-02T17:53:36;3.73;;;1.37;;